Terminal Aerodrome Forecast
Issued by NWS

Home | Current Version | Previous Version | Text Only | Print | Product List | Glossary On
Versions: 1 2 3 4 5 6 7 8 9 10 11 12 13 14 15 16 17 18 19 20 21 22 23
000
FTUS43 KMPX 222332
TAFRNH
TAF
KRNH 222332Z 2300/2324 31004KT 6SM BR OVC008
     FM230300 29004KT 4SM BR OVC005
     FM231500 28003KT 6SM BR OVC008
     FM231900 27003KT P6SM OVC015=

USA.gov is the U.S. government's official web portal to all federal, state and local government web resources and services.